Time;durP1;ratioP1;P1;durP2;ratioP2;P2;SDS_P1;SDS_P2;PMS_P1;PMS_P2;Temp;Humidity;BMP_temperature;BMP_pressure;BME280_temperature;BME280_humidity;BME280_pressure;Samples;Min_cycle;Max_cycle;Signal;HPM_P1;HPM_P2
2022/01/17 00:01:30;;;;;;;2.17;1.35;;;;;;;-7.58;65.38;98113.78;5045006;28;20087;-93
2022/01/17 00:03:56;;;;;;;3.85;2.20;;;;;;;-7.48;65.30;98121.31;5078468;28;20044;-92
2022/01/17 00:06:22;;;;;;;1.95;1.73;;;;;;;-7.45;65.38;98123.81;5076116;28;20043;-91
2022/01/17 00:08:49;;;;;;;2.03;1.60;;;;;;;-7.50;65.58;98120.50;5059504;28;20040;-91
2022/01/17 00:11:16;;;;;;;2.28;1.88;;;;;;;-7.41;65.56;98122.84;5087883;28;20052;-93
2022/01/17 00:13:43;;;;;;;2.25;1.95;;;;;;;-7.47;65.39;98120.44;5082037;28;20059;-93
2022/01/17 00:21:04;;;;;;;2.25;2.05;;;;;;;-7.52;65.73;98127.47;5041910;28;20495;-86
2022/01/17 00:23:31;;;;;;;2.25;1.67;;;;;;;-7.55;65.69;98127.56;5058140;28;20040;-86
2022/01/17 00:25:57;;;;;;;2.58;1.77;;;;;;;-7.52;65.87;98128.34;5075033;28;20080;-87
2022/01/17 00:28:23;;;;;;;2.10;1.90;;;;;;;-7.54;66.00;98129.28;5074944;28;20060;-86
2022/01/17 00:30:49;;;;;;;2.85;2.25;;;;;;;-7.60;65.93;98128.56;5061387;28;20067;-88
2022/01/17 00:33:15;;;;;;;3.25;1.63;;;;;;;-7.54;66.30;98139.66;5079062;28;20543;-84
2022/01/17 00:35:41;;;;;;;2.20;1.92;;;;;;;-7.47;66.20;98136.00;5079533;28;20060;-85
2022/01/17 00:38:07;;;;;;;2.55;1.83;;;;;;;-7.43;66.34;98140.22;5062489;28;20052;-86
2022/01/17 00:40:33;;;;;;;3.22;1.85;;;;;;;-7.43;66.25;98153.19;5077512;28;20055;-84
2022/01/17 00:42:59;;;;;;;2.65;2.10;;;;;;;-7.33;65.95;98157.25;5043313;28;20048;-83
2022/01/17 00:45:27;;;;;;;2.58;1.58;;;;;;;-7.37;66.01;98150.41;5025502;28;20522;-85
2022/01/17 00:47:55;;;;;;;1.67;1.58;;;;;;;-7.36;66.40;98149.53;5074630;28;20158;-86
2022/01/17 00:50:25;;;;;;;2.13;1.70;;;;;;;-7.26;66.46;98150.13;5074499;28;20045;-86
2022/01/17 00:52:52;;;;;;;3.17;2.20;;;;;;;-7.23;66.45;98139.66;5072954;28;20131;-84
2022/01/17 00:55:18;;;;;;;3.22;2.00;;;;;;;-7.20;66.88;98148.22;5056482;28;20044;-85
2022/01/17 00:57:44;;;;;;;2.58;2.00;;;;;;;-7.14;66.39;98150.66;5073958;28;20403;-85
2022/01/17 01:00:10;;;;;;;1.85;1.75;;;;;;;-7.12;66.15;98154.03;5056746;28;20513;-86
2022/01/17 01:02:37;;;;;;;2.85;2.15;;;;;;;-7.05;66.20;98159.06;5072784;28;20490;-86
2022/01/17 01:05:03;;;;;;;5.25;2.50;;;;;;;-7.05;65.75;98146.09;5039122;28;20048;-86
2022/01/17 01:07:29;;;;;;;2.20;2.00;;;;;;;-7.02;65.89;98171.97;5089704;28;20384;-87
2022/01/17 01:10:05;;;;;;;2.33;2.00;;;;;;;-7.01;65.82;98171.06;5074223;28;20467;-88
2022/01/17 01:12:31;;;;;;;2.75;1.90;;;;;;;-6.98;65.57;98171.00;5072585;28;20044;-86
2022/01/17 01:14:57;;;;;;;3.58;1.98;;;;;;;-6.94;65.83;98183.00;5072262;28;20123;-85
2022/01/17 01:17:47;;;;;;;2.03;1.83;;;;;;;-6.95;65.69;98186.50;5038989;28;20500;-86
2022/01/17 01:28:29;;;;;;;2.67;1.95;;;;;;;-7.04;66.29;98187.56;5058674;28;20146;-90
2022/01/17 01:30:57;;;;;;;2.92;2.13;;;;;;;-7.00;66.33;98183.16;5089153;28;20037;-90
2022/01/17 01:33:31;;;;;;;2.95;2.25;;;;;;;-6.98;66.33;98191.75;5072264;28;20043;-88
2022/01/17 01:36:04;;;;;;;2.95;2.17;;;;;;;-6.93;66.54;98192.47;5089059;28;20514;-89
2022/01/17 01:38:31;;;;;;;2.85;2.22;;;;;;;-6.87;66.27;98205.31;5041449;28;20040;-89
2022/01/17 01:40:57;;;;;;;3.38;2.13;;;;;;;-6.85;66.26;98203.50;5055496;28;20522;-88
2022/01/17 01:43:23;;;;;;;3.25;2.40;;;;;;;-6.85;66.16;98208.69;5055168;28;20041;-90
2022/01/17 01:45:49;;;;;;;4.15;2.38;;;;;;;-6.77;66.38;98216.28;5055245;28;20189;-87
2022/01/17 01:48:19;;;;;;;3.08;2.50;;;;;;;-6.80;66.29;98219.81;5055642;28;20531;-88
2022/01/17 01:50:45;;;;;;;2.65;2.13;;;;;;;-6.78;66.26;98211.97;5056691;28;20040;-86
2022/01/17 01:53:12;;;;;;;2.58;2.20;;;;;;;-6.85;66.59;98214.72;5095588;28;20062;-85
2022/01/17 01:55:38;;;;;;;3.15;2.60;;;;;;;-6.77;66.84;98219.75;5060749;28;20049;-85
2022/01/17 01:58:04;;;;;;;3.53;2.25;;;;;;;-6.76;66.62;98224.03;5055928;28;20136;-87
2022/01/17 02:00:30;;;;;;;4.13;2.30;;;;;;;-6.72;66.34;98225.66;5071987;28;20051;-85
2022/01/17 02:02:56;;;;;;;3.55;2.40;;;;;;;-6.73;66.61;98229.16;5072912;28;20135;-83
2022/01/17 02:05:22;;;;;;;2.55;2.30;;;;;;;-6.70;66.68;98226.44;5072859;28;20043;-84
2022/01/17 02:07:48;;;;;;;2.88;2.45;;;;;;;-6.66;66.63;98235.00;5054886;28;20044;-82
2022/01/17 02:10:14;;;;;;;3.35;2.38;;;;;;;-6.65;66.75;98247.97;5072110;28;20117;-83
2022/01/17 02:12:40;;;;;;;6.28;2.38;;;;;;;-6.58;66.53;98255.56;5092298;28;20051;-83
2022/01/17 02:15:15;;;;;;;3.10;2.33;;;;;;;-6.50;66.61;98261.44;5058513;28;20511;-82
2022/01/17 02:17:54;;;;;;;2.63;1.92;;;;;;;-6.52;66.65;98258.00;5041784;28;20135;-81
2022/01/17 02:20:22;;;;;;;2.67;2.35;;;;;;;-6.54;66.47;98267.59;5075160;28;20045;-82
2022/01/17 02:22:49;;;;;;;3.83;2.25;;;;;;;-6.56;66.59;98264.19;5075291;28;20574;-86
2022/01/17 02:25:15;;;;;;;3.28;2.40;;;;;;;-6.53;66.41;98279.72;5044189;28;20511;-87
2022/01/17 02:27:42;;;;;;;2.97;2.30;;;;;;;-6.56;66.81;98282.41;5059973;28;20045;-92
2022/01/17 02:30:11;;;;;;;3.33;2.35;;;;;;;-6.50;66.21;98284.84;5045148;28;20045;-90
2022/01/17 02:32:37;;;;;;;3.05;2.28;;;;;;;-6.49;66.33;98286.53;5095703;28;20136;-91
2022/01/17 02:35:20;;;;;;;2.80;2.50;;;;;;;-6.54;66.33;98301.38;5066551;28;20531;-87
2022/01/17 02:37:46;;;;;;;5.00;2.58;;;;;;;-6.47;66.30;98302.91;5086611;28;20127;-87
2022/01/17 02:40:13;;;;;;;5.72;2.75;;;;;;;-6.51;66.10;98304.75;5076904;28;20131;-87
2022/01/17 02:42:39;;;;;;;2.92;2.53;;;;;;;-6.43;66.01;98312.31;5044820;28;20120;-86
2022/01/17 02:47:53;;;;;;;2.92;2.55;;;;;;;-6.38;66.10;98307.88;5089141;28;20127;-86
2022/01/17 02:50:19;;;;;;;3.58;2.47;;;;;;;-6.40;65.91;98309.66;5090847;28;20044;-86
2022/01/17 02:52:45;;;;;;;3.75;2.40;;;;;;;-6.43;66.10;98320.13;5061358;28;20126;-85
2022/01/17 02:55:12;;;;;;;3.40;2.58;;;;;;;-6.37;65.70;98319.97;5109060;28;20103;-88
2022/01/17 02:57:38;;;;;;;5.05;2.85;;;;;;;-6.40;65.76;98320.03;5103048;28;20048;-89
2022/01/17 03:00:05;;;;;;;4.68;3.13;;;;;;;-6.40;65.64;98326.09;5078840;28;20047;-82
2022/01/17 03:02:31;;;;;;;7.18;3.08;;;;;;;-6.33;65.81;98323.34;5044874;28;20078;-85
2022/01/17 03:04:57;;;;;;;5.32;2.53;;;;;;;-6.26;65.58;98320.50;5096121;28;20116;-81
2022/01/17 03:07:23;;;;;;;4.75;3.00;;;;;;;-6.21;65.66;98321.22;5078031;28;20101;-83
2022/01/17 03:10:01;;;;;;;5.05;2.75;;;;;;;-6.19;65.51;98319.44;5077501;28;20505;-82
2022/01/17 03:12:30;;;;;;;7.00;2.67;;;;;;;-6.19;65.60;98318.59;5065208;28;20667;-82
2022/01/17 03:14:56;;;;;;;5.43;3.05;;;;;;;-6.12;65.52;98336.56;5077584;28;20040;-79
2022/01/17 03:17:22;;;;;;;4.25;3.00;;;;;;;-6.04;65.58;98351.13;5094281;28;20044;-79
2022/01/17 03:19:48;;;;;;;6.13;2.95;;;;;;;-6.06;65.55;98351.13;5063028;28;20044;-80
2022/01/17 03:22:14;;;;;;;4.70;2.63;;;;;;;-6.05;65.30;98357.22;5054036;28;20090;-82
2022/01/17 03:24:40;;;;;;;4.00;2.95;;;;;;;-6.02;65.18;98351.91;5086356;28;20115;-84
2022/01/17 03:27:06;;;;;;;3.53;2.55;;;;;;;-6.03;65.55;98358.84;5104098;28;20072;-83
2022/01/17 03:29:33;;;;;;;3.08;2.78;;;;;;;-6.03;65.45;98366.66;5066519;28;20124;-82
2022/01/17 03:31:59;;;;;;;5.00;2.50;;;;;;;-6.05;65.13;98362.44;5097005;28;20040;-82
2022/01/17 03:34:25;;;;;;;5.47;2.70;;;;;;;-6.01;65.27;98372.69;5077382;28;20039;-81
2022/01/17 03:36:51;;;;;;;3.40;2.58;;;;;;;-6.03;65.32;98368.41;5095438;28;20139;-80
2022/01/17 03:39:17;;;;;;;3.17;2.67;;;;;;;-6.06;65.23;98373.69;5060079;28;20043;-81
2022/01/17 03:41:43;;;;;;;5.43;3.20;;;;;;;-6.03;65.29;98382.28;5076991;28;20079;-79
2022/01/17 03:44:09;;;;;;;5.53;2.90;;;;;;;-6.04;65.22;98374.53;5060114;28;20044;-79
2022/01/17 03:46:35;;;;;;;3.47;2.55;;;;;;;-5.98;65.18;98376.94;5060133;28;20116;-78
2022/01/17 03:49:01;;;;;;;3.70;2.80;;;;;;;-6.05;65.36;98372.84;5076645;28;20040;-77
2022/01/17 03:51:27;;;;;;;4.32;2.53;;;;;;;-6.12;65.20;98362.59;5093456;28;20096;-78
2022/01/17 03:53:53;;;;;;;2.88;2.47;;;;;;;-6.14;65.62;98377.38;5077058;28;20040;-85
2022/01/17 03:56:19;;;;;;;3.13;2.38;;;;;;;-6.26;65.63;98379.47;5060056;28;20146;-77
2022/01/17 03:58:47;;;;;;;3.88;2.38;;;;;;;-6.41;66.17;98383.34;5076214;28;20036;-79
2022/01/17 04:01:13;;;;;;;3.92;2.80;;;;;;;-6.31;65.92;98386.56;5059866;28;20046;-80
2022/01/17 04:03:39;;;;;;;5.07;3.22;;;;;;;-6.17;65.98;98398.28;5059966;28;20044;-78
2022/01/17 04:06:05;;;;;;;4.63;3.20;;;;;;;-6.12;65.82;98387.75;5076569;28;20590;-78
2022/01/17 04:08:34;;;;;;;4.72;3.17;;;;;;;-6.07;65.96;98391.06;5076507;27;20542;-81
2022/01/17 04:11:00;;;;;;;4.90;3.22;;;;;;;-6.08;66.01;98391.97;5076636;28;20521;-81
2022/01/17 04:13:26;;;;;;;3.35;2.55;;;;;;;-6.19;66.03;98381.03;5093144;28;20052;-81
2022/01/17 04:15:52;;;;;;;4.13;2.65;;;;;;;-6.20;66.33;98403.56;5092964;28;20500;-81
2022/01/17 04:18:23;;;;;;;2.10;1.90;;;;;;;-6.36;67.16;98410.06;5042774;28;20040;-79
2022/01/17 04:20:49;;;;;;;2.28;1.88;;;;;;;-6.49;67.61;98413.91;5092935;28;20483;-83
2022/01/17 04:23:15;;;;;;;4.45;2.47;;;;;;;-6.46;67.68;98408.63;5094389;28;20048;-83
2022/01/17 04:25:42;;;;;;;3.08;2.30;;;;;;;-6.49;68.11;98403.50;5075739;28;20495;-80
2022/01/17 04:28:09;;;;;;;2.70;2.47;;;;;;;-6.50;67.88;98412.22;5059012;28;20067;-80
2022/01/17 04:30:35;;;;;;;2.22;2.03;;;;;;;-6.68;68.51;98419.59;5109834;28;20403;-79
2022/01/17 04:33:01;;;;;;;5.10;1.95;;;;;;;-6.82;68.69;98421.66;5075093;28;20050;-80
2022/01/17 04:35:28;;;;;;;7.93;2.95;;;;;;;-6.86;69.31;98420.88;5091985;28;20043;-79
2022/01/17 04:38:15;;;;;;;3.65;2.33;;;;;;;-6.83;69.38;98432.13;5091435;28;20495;-80
2022/01/17 04:40:44;;;;;;;1.98;1.77;;;;;;;-6.81;69.23;98440.72;5044585;28;20085;-80
2022/01/17 04:43:19;;;;;;;2.60;1.98;;;;;;;-6.86;69.38;98420.03;5058789;28;20052;-82
2022/01/17 04:45:46;;;;;;;3.45;2.50;;;;;;;-6.73;69.40;98425.78;5060343;28;20105;-80
2022/01/17 04:48:12;;;;;;;4.20;2.58;;;;;;;-6.68;69.08;98440.38;5091128;28;20511;-79
2022/01/17 04:50:38;;;;;;;3.80;2.38;;;;;;;-6.63;68.83;98445.44;5041628;28;20044;-81
2022/01/17 04:53:04;;;;;;;2.33;1.98;;;;;;;-6.62;68.97;98445.44;5075406;28;20132;-81
2022/01/17 04:55:30;;;;;;;2.50;1.92;;;;;;;-6.50;68.94;98443.41;5092234;28;20047;-82
2022/01/17 04:57:57;;;;;;;2.40;2.20;;;;;;;-6.42;68.50;98428.47;5075187;28;20040;-82
2022/01/17 05:00:23;;;;;;;3.72;2.42;;;;;;;-6.38;68.05;98448.28;5075338;28;20476;-82
2022/01/17 05:02:49;;;;;;;2.85;1.85;;;;;;;-6.49;67.99;98445.09;5092466;28;20047;-84
2022/01/17 05:05:15;;;;;;;3.47;2.70;;;;;;;-6.44;68.33;98448.44;5059081;28;20121;-82
2022/01/17 05:07:41;;;;;;;6.00;2.40;;;;;;;-6.36;68.24;98451.69;5058691;28;20105;-82
2022/01/17 05:10:09;;;;;;;6.00;2.28;;;;;;;-6.34;67.94;98470.72;5075198;28;20047;-84
2022/01/17 05:12:35;;;;;;;3.53;2.50;;;;;;;-6.32;67.79;98468.91;5092275;28;20067;-83
2022/01/17 05:15:02;;;;;;;17.92;3.55;;;;;;;-6.20;67.54;98455.59;5075640;28;20044;-83
2022/01/17 05:19:58;;;;;;;5.07;2.30;;;;;;;-5.96;66.90;98476.63;5093348;28;20047;-81
2022/01/17 05:22:32;;;;;;;6.20;3.15;;;;;;;-5.86;66.65;98483.25;5058864;28;20102;-78
2022/01/17 05:24:59;;;;;;;4.13;2.25;;;;;;;-5.75;66.41;98483.81;5059169;28;20047;-82
2022/01/17 05:27:25;;;;;;;2.50;1.98;;;;;;;-5.70;66.01;98487.13;5092958;28;20036;-81
2022/01/17 05:29:51;;;;;;;2.72;2.15;;;;;;;-5.70;65.71;98491.50;5091964;28;20086;-83
2022/01/17 05:32:17;;;;;;;3.75;2.58;;;;;;;-5.61;66.03;98499.88;5074897;28;20142;-82
2022/01/17 05:34:43;;;;;;;3.92;3.05;;;;;;;-5.56;65.58;98512.78;5075744;28;20082;-81
2022/01/17 05:37:10;;;;;;;4.28;2.60;;;;;;;-5.47;65.00;98502.09;5058623;28;20044;-81
2022/01/17 05:39:36;;;;;;;4.05;2.65;;;;;;;-5.40;64.64;98513.19;5077173;28;20043;-82
2022/01/17 05:42:03;;;;;;;3.85;2.75;;;;;;;-5.44;64.52;98507.22;5098958;28;20063;-82
2022/01/17 05:44:30;;;;;;;3.58;2.47;;;;;;;-5.49;64.40;98500.41;5109099;28;20092;-80
2022/01/17 05:46:56;;;;;;;5.45;2.83;;;;;;;-5.33;64.20;98513.88;5097615;28;20056;-82
2022/01/17 05:49:22;;;;;;;5.55;3.08;;;;;;;-5.31;63.98;98520.72;5079391;28;20517;-80
2022/01/17 05:51:48;;;;;;;5.32;2.58;;;;;;;-5.25;64.11;98528.38;5096097;28;20051;-81
2022/01/17 05:54:15;;;;;;;3.53;2.85;;;;;;;-5.15;64.08;98540.25;5097064;28;20040;-80
2022/01/17 05:56:42;;;;;;;4.25;2.90;;;;;;;-5.05;63.22;98540.78;5045818;28;20040;-81
2022/01/17 05:59:08;;;;;;;8.30;2.72;;;;;;;-5.08;63.34;98553.06;5079551;28;20040;-81
2022/01/17 06:01:34;;;;;;;4.40;2.60;;;;;;;-5.08;62.89;98586.94;5096971;28;20121;-80
2022/01/17 06:04:00;;;;;;;2.95;2.17;;;;;;;-5.05;63.20;98612.91;5095879;28;20131;-80
2022/01/17 06:06:26;;;;;;;4.40;2.80;;;;;;;-5.06;62.95;98642.50;5096222;28;20089;-80
2022/01/17 06:08:52;;;;;;;5.70;2.70;;;;;;;-5.10;62.98;98669.53;5062114;28;20044;-80
2022/01/17 06:11:18;;;;;;;3.63;2.92;;;;;;;-5.12;63.21;98680.81;5095163;28;20075;-81
2022/01/17 06:13:44;;;;;;;5.88;2.72;;;;;;;-4.95;63.28;98687.34;5078350;28;20036;-81
2022/01/17 06:16:10;;;;;;;5.78;3.42;;;;;;;-5.05;62.68;98678.06;5095520;28;20056;-81
2022/01/17 06:18:36;;;;;;;9.88;3.42;;;;;;;-4.94;63.02;98657.75;5061886;28;20070;-81
2022/01/17 06:21:02;;;;;;;7.53;3.33;;;;;;;-4.84;63.04;98633.16;5095416;28;20044;-79
2022/01/17 06:23:28;;;;;;;3.97;2.83;;;;;;;-4.76;62.02;98615.53;5096392;28;20516;-80
2022/01/17 06:25:54;;;;;;;7.75;3.13;;;;;;;-4.76;61.87;98599.88;5061601;28;20567;-81
2022/01/17 06:28:20;;;;;;;4.70;3.10;;;;;;;-4.76;61.70;98625.94;5078230;28;20151;-81
2022/01/17 06:30:46;;;;;;;4.72;3.28;;;;;;;-4.73;61.83;98622.41;5095526;28;20552;-81
2022/01/17 06:33:12;;;;;;;3.03;2.53;;;;;;;-4.77;61.41;98603.41;5095314;28;20032;-81
2022/01/17 06:35:38;;;;;;;4.53;3.40;;;;;;;-4.61;61.99;98597.72;5096952;28;20448;-80
2022/01/17 06:38:04;;;;;;;6.10;3.35;;;;;;;-4.62;61.94;98601.22;5095691;28;20079;-81
2022/01/17 06:40:31;;;;;;;4.32;3.20;;;;;;;-4.69;61.80;98604.00;5094648;28;20080;-81
2022/01/17 06:42:57;;;;;;;4.03;3.28;;;;;;;-4.85;62.18;98594.97;5094494;28;20044;-81
2022/01/17 06:45:24;;;;;;;6.25;3.47;;;;;;;-4.80;62.02;98598.28;5094777;28;20380;-81
2022/01/17 06:47:50;;;;;;;4.20;3.25;;;;;;;-4.84;62.05;98606.22;5095821;28;20135;-81
2022/01/17 06:50:16;;;;;;;7.95;4.18;;;;;;;-4.86;62.12;98608.00;5077620;28;20040;-81
2022/01/17 06:52:43;;;;;;;5.82;4.13;;;;;;;-4.74;62.47;98598.09;5077755;28;20495;-81
2022/01/17 06:55:09;;;;;;;4.95;3.67;;;;;;;-4.64;62.34;98598.66;5095629;28;20101;-82
2022/01/17 06:57:35;;;;;;;4.82;3.20;;;;;;;-4.69;62.19;98601.41;5077554;28;20048;-80
2022/01/17 07:00:04;;;;;;;5.13;3.22;;;;;;;-4.49;62.00;98612.97;5094800;28;20055;-80
2022/01/17 07:02:30;;;;;;;6.15;3.75;;;;;;;-4.49;62.16;98602.53;5087010;28;20040;-82
2022/01/17 07:04:56;;;;;;;8.85;3.85;;;;;;;-4.43;61.63;98607.56;5058698;28;20040;-82
2022/01/17 07:07:23;;;;;;;4.28;3.45;;;;;;;-4.44;61.83;98605.84;5060223;28;20047;-82
2022/01/17 07:09:48;;;;;;;7.35;4.18;;;;;;;-4.41;61.52;98592.72;5073952;28;20048;-80
2022/01/17 07:12:14;;;;;;;7.13;3.38;;;;;;;-4.46;61.76;98592.88;5089192;28;20197;-78
2022/01/17 07:14:42;;;;;;;3.75;2.92;;;;;;;-4.29;61.54;98594.94;5090948;28;20123;-82
2022/01/17 07:17:09;;;;;;;4.15;2.83;;;;;;;-4.26;61.29;98610.50;5040719;28;20044;-76
2022/01/17 07:19:36;;;;;;;5.93;3.42;;;;;;;-4.10;62.28;98610.00;5057610;28;20059;-86
2022/01/17 07:22:05;;;;;;;3.28;2.13;;;;;;;-3.98;62.00;98601.78;5058243;28;20367;-79
2022/01/17 07:24:32;;;;;;;10.93;4.38;;;;;;;-3.99;60.98;98607.88;5041418;28;20040;-77
2022/01/17 07:26:59;;;;;;;6.53;2.70;;;;;;;-4.26;60.75;98610.50;5073689;28;20495;-81
2022/01/17 07:29:26;;;;;;;7.35;3.55;;;;;;;-4.29;61.42;98607.97;5073233;28;20060;-82
2022/01/17 07:31:53;;;;;;;3.08;2.78;;;;;;;-4.33;61.39;98601.16;5074517;28;20055;-79
2022/01/17 07:34:18;;;;;;;6.20;3.72;;;;;;;-4.53;61.59;98616.59;5074589;28;20075;-81
2022/01/17 07:36:44;;;;;;;3.75;2.70;;;;;;;-4.64;62.44;98602.09;5090526;28;20090;-82
2022/01/17 07:39:10;;;;;;;5.57;2.83;;;;;;;-4.60;62.63;98604.63;5074802;28;20399;-81
2022/01/17 07:41:36;;;;;;;4.85;2.88;;;;;;;-4.55;62.05;98613.16;5057063;28;20092;-83
2022/01/17 07:44:04;;;;;;;3.95;3.25;;;;;;;-4.48;62.25;98612.91;5074773;28;20041;-83
2022/01/17 07:51:59;;;;;;;5.72;3.72;;;;;;;-4.10;61.51;98641.31;5086112;28;20056;-81
2022/01/17 07:54:29;;;;;;;5.88;3.60;;;;;;;-4.03;61.02;98640.22;5057685;28;20507;-82
2022/01/17 07:56:56;;;;;;;5.72;3.90;;;;;;;-3.76;61.25;98636.72;5073375;28;20071;-82
2022/01/17 07:59:23;;;;;;;5.10;3.70;;;;;;;-3.80;60.02;98640.34;5057641;28;20048;-82
2022/01/17 08:01:48;;;;;;;6.43;3.42;;;;;;;-3.74;60.13;98647.94;5074979;28;20058;-83
2022/01/17 08:04:15;;;;;;;4.75;3.35;;;;;;;-3.66;62.87;98638.09;5074524;28;20044;-79
2022/01/17 08:06:40;;;;;;;6.82;3.40;;;;;;;-3.82;60.06;98620.41;5074956;28;20135;-83
2022/01/17 08:09:17;;;;;;;5.15;3.42;;;;;;;-3.71;59.91;98639.16;5071996;28;20510;-83
2022/01/17 08:11:44;;;;;;;3.20;2.47;;;;;;;-3.67;59.92;98644.22;5039860;28;20040;-84
2022/01/17 08:14:09;;;;;;;5.10;3.10;;;;;;;-3.83;59.83;98650.03;5073693;28;20048;-81
2022/01/17 08:16:35;;;;;;;7.22;3.42;;;;;;;-3.80;60.00;98635.13;5056007;28;20446;-79
2022/01/17 08:19:01;;;;;;;3.88;3.08;;;;;;;-3.69;59.46;98651.25;5072643;28;20131;-82
2022/01/17 08:21:27;;;;;;;6.95;3.47;;;;;;;-3.47;60.01;98637.47;5038623;28;20044;-81
2022/01/17 08:23:54;;;;;;;5.05;3.60;;;;;;;-3.24;59.10;98645.34;5073377;28;20135;-83
2022/01/17 08:26:20;;;;;;;6.00;3.50;;;;;;;-3.02;59.22;98644.59;5072015;28;20063;-81
2022/01/17 08:28:46;;;;;;;6.95;4.15;;;;;;;-3.00;57.83;98642.78;5072013;28;20060;-81
2022/01/17 08:31:12;;;;;;;4.53;2.85;;;;;;;-3.07;57.61;98630.84;5075449;28;20559;-87
2022/01/17 08:33:38;;;;;;;6.07;3.55;;;;;;;-2.94;58.44;98632.06;5056223;28;20450;-84
2022/01/17 08:36:07;;;;;;;4.43;3.33;;;;;;;-2.71;58.08;98624.25;5072151;28;20048;-86
2022/01/17 08:38:34;;;;;;;6.55;4.10;;;;;;;-2.69;56.95;98622.41;5056869;28;20135;-86
2022/01/17 08:41:00;;;;;;;9.18;3.50;;;;;;;-2.80;56.88;98632.44;5074625;28;20098;-80
2022/01/17 08:43:26;;;;;;;4.88;3.50;;;;;;;-2.81;56.86;98635.97;5072820;28;20104;-81
2022/01/17 08:45:53;;;;;;;5.60;3.30;;;;;;;-2.82;56.73;98646.47;5072431;28;20044;-87
2022/01/17 08:48:19;;;;;;;5.70;3.55;;;;;;;-2.65;56.51;98638.84;5059832;28;20411;-85
2022/01/17 08:50:47;;;;;;;16.27;4.55;;;;;;;-2.67;56.60;98653.75;5087120;28;20545;-83
2022/01/17 08:53:14;;;;;;;4.53;2.88;;;;;;;-2.78;56.74;98642.84;5075280;28;20422;-82
2022/01/17 08:55:42;;;;;;;6.78;3.08;;;;;;;-2.81;56.47;98656.88;5091863;28;20376;-80
2022/01/17 08:58:09;;;;;;;5.95;3.53;;;;;;;-2.88;56.34;98651.94;5059707;28;20196;-79
2022/01/17 09:00:35;;;;;;;5.22;3.30;;;;;;;-2.74;56.83;98634.81;5092735;28;20044;-85
2022/01/17 09:03:01;;;;;;;10.13;4.18;;;;;;;-2.88;56.14;98637.09;5060069;28;20047;-85
2022/01/17 09:05:30;;;;;;;5.75;3.08;;;;;;;-3.18;56.82;98636.44;5093898;28;20044;-86
2022/01/17 09:07:57;;;;;;;6.07;3.30;;;;;;;-3.18;57.13;98629.44;5093638;28;20047;-83
2022/01/17 09:10:23;;;;;;;4.72;3.42;;;;;;;-3.18;57.07;98626.84;5043685;28;20483;-82
2022/01/17 09:12:51;;;;;;;7.00;3.30;;;;;;;-3.15;56.81;98617.19;5093113;28;20071;-84
2022/01/17 09:15:17;;;;;;;6.28;3.55;;;;;;;-2.96;57.12;98633.91;5042589;28;20503;-80
2022/01/17 09:17:44;;;;;;;7.25;3.38;;;;;;;-2.90;56.42;98635.44;5041715;28;20449;-81
2022/01/17 09:20:10;;;;;;;3.42;2.80;;;;;;;-2.81;56.46;98637.72;5071294;28;20044;-80
2022/01/17 09:22:36;;;;;;;5.85;3.83;;;;;;;-2.74;56.28;98655.75;5069539;28;20056;-82
2022/01/17 09:25:06;;;;;;;5.05;3.22;;;;;;;-2.73;55.92;98646.97;5093308;28;20060;-82
2022/01/17 09:27:35;;;;;;;4.07;3.38;;;;;;;-2.76;55.76;98648.84;5083259;28;20059;-82
2022/01/17 09:30:05;;;;;;;7.68;3.25;;;;;;;-2.81;55.68;98649.03;5067855;28;20052;-83
2022/01/17 09:32:31;;;;;;;4.28;3.50;;;;;;;-2.90;56.09;98651.97;5074581;28;20514;-83
2022/01/17 09:34:57;;;;;;;5.47;3.72;;;;;;;-2.82;55.81;98657.81;5041766;28;20040;-82
2022/01/17 09:37:23;;;;;;;4.65;3.50;;;;;;;-2.78;55.67;98622.78;5054243;28;20040;-80
2022/01/17 09:39:49;;;;;;;5.25;3.55;;;;;;;-2.59;55.59;98637.78;5038266;28;20556;-81
2022/01/17 09:42:16;;;;;;;5.20;3.65;;;;;;;-2.69;55.46;98621.56;5054748;28;20093;-80
2022/01/17 09:44:42;;;;;;;6.10;3.35;;;;;;;-2.72;55.27;98627.75;5054832;28;20101;-81
2022/01/17 09:47:08;;;;;;;6.95;4.05;;;;;;;-2.77;55.85;98631.47;5053875;28;20048;-81
2022/01/17 09:49:40;;;;;;;5.65;3.55;;;;;;;-2.85;55.78;98639.59;5070897;28;20060;-80
2022/01/17 09:52:25;;;;;;;5.78;3.67;;;;;;;-3.09;56.63;98630.03;5058756;28;20044;-80
2022/01/17 09:54:51;;;;;;;5.55;3.63;;;;;;;-3.30;57.39;98647.34;5070483;28;20044;-80
2022/01/17 09:57:18;;;;;;;4.90;3.20;;;;;;;-3.50;58.03;98650.63;5071219;28;20045;-81
2022/01/17 09:59:44;;;;;;;7.18;3.90;;;;;;;-3.35;57.85;98631.81;5037889;28;20044;-81
2022/01/17 10:02:11;;;;;;;8.15;4.03;;;;;;;-3.22;57.65;98630.47;5037013;28;20480;-80
2022/01/17 10:04:37;;;;;;;5.05;3.60;;;;;;;-3.02;57.10;98648.03;5071909;28;20040;-79
2022/01/17 10:07:05;;;;;;;7.47;3.40;;;;;;;-2.97;56.90;98647.88;5070826;28;20074;-80
2022/01/17 10:09:33;;;;;;;7.35;3.20;;;;;;;-3.01;56.60;98656.75;5071970;28;20047;-79
2022/01/17 10:12:02;;;;;;;4.85;3.38;;;;;;;-3.08;56.59;98647.44;5070321;28;20522;-81
2022/01/17 10:14:29;;;;;;;6.78;3.75;;;;;;;-3.05;56.62;98655.16;5082798;28;20048;-80
2022/01/17 10:16:55;;;;;;;11.15;3.55;;;;;;;-2.93;59.97;98657.34;5087746;28;20058;-88
2022/01/17 10:19:22;;;;;;;5.70;3.90;;;;;;;-2.91;57.30;98662.50;5041399;28;20188;-81
2022/01/17 10:21:52;;;;;;;4.35;3.50;;;;;;;-2.78;56.43;98664.63;5074347;28;20040;-84
2022/01/17 10:34:54;;;;;;;5.78;4.00;;;;;;;-2.83;57.21;98663.91;5095362;28;20044;-88
2022/01/17 10:37:22;;;;;;;6.03;3.97;;;;;;;-3.09;57.22;98661.41;5101173;27;20127;-85
2022/01/17 10:39:54;;;;;;;9.60;4.18;;;;;;;-3.39;57.99;98669.41;5063931;28;20052;-89
2022/01/17 10:42:37;;;;;;;7.07;3.45;;;;;;;-3.62;58.52;98669.34;5100611;28;20055;-87
2022/01/17 10:45:07;;;;;;;7.95;4.00;;;;;;;-3.60;58.84;98664.94;5079685;28;20052;-84
2022/01/17 10:47:35;;;;;;;10.52;4.03;;;;;;;-3.41;58.68;98668.63;5082223;28;20044;-85
2022/01/17 10:50:23;;;;;;;4.63;3.90;;;;;;;-3.17;58.15;98667.75;5103093;28;20415;-86
2022/01/17 10:52:51;;;;;;;6.63;3.83;;;;;;;-2.96;57.02;98674.00;5072658;28;20040;-88
2022/01/17 10:55:23;;;;;;;7.13;3.70;;;;;;;-3.21;57.46;98666.16;5067732;28;20494;-86
2022/01/17 10:57:57;;;;;;;7.35;3.80;;;;;;;-3.07;57.66;98654.38;5081280;28;20063;-90
2022/01/17 11:00:29;;;;;;;9.27;3.60;;;;;;;-3.08;57.71;98670.97;5079108;28;20537;-89
2022/01/17 11:02:57;;;;;;;4.90;3.50;;;;;;;-3.23;57.53;98681.06;5041996;28;20497;-88
2022/01/17 11:05:23;;;;;;;6.07;3.97;;;;;;;-3.51;58.16;98669.81;5056733;28;20053;-79
2022/01/17 11:07:52;;;;;;;6.65;3.60;;;;;;;-3.59;58.81;98692.75;5039462;28;20167;-80
2022/01/17 11:10:25;;;;;;;8.68;4.45;;;;;;;-3.73;58.81;98694.03;5039398;28;20045;-80
2022/01/17 11:12:55;;;;;;;6.15;3.90;;;;;;;-3.76;62.56;98698.50;5057768;28;20102;-81
2022/01/17 11:15:21;;;;;;;6.25;3.95;;;;;;;-3.66;61.97;98705.16;5040056;28;20102;-84
2022/01/17 11:18:03;;;;;;;10.32;5.05;;;;;;;-3.22;62.18;98701.03;5055935;28;20036;-81
2022/01/17 11:20:38;;;;;;;15.27;5.05;;;;;;;-3.41;59.51;98705.19;5073341;28;20064;-81
2022/01/17 11:23:04;;;;;;;8.60;4.32;;;;;;;-3.72;59.11;98706.22;5056359;28;20063;-84
2022/01/17 11:25:35;;;;;;;7.47;4.75;;;;;;;-3.91;59.69;98720.78;5039342;28;20499;-87
2022/01/17 11:28:02;;;;;;;9.35;4.88;;;;;;;-4.12;60.26;98721.44;5039995;28;20048;-83
2022/01/17 11:30:28;;;;;;;8.63;4.10;;;;;;;-4.29;60.67;98722.78;5039459;28;20049;-84
2022/01/17 11:32:55;;;;;;;7.90;4.40;;;;;;;-4.38;61.26;98736.09;5039628;28;20052;-82
2022/01/17 11:35:22;;;;;;;5.57;4.25;;;;;;;-4.56;61.07;98715.78;5055618;28;20047;-82
2022/01/17 11:37:51;;;;;;;7.97;4.47;;;;;;;-4.58;61.39;98722.81;5056117;28;20048;-81
2022/01/17 11:40:21;;;;;;;5.30;4.05;;;;;;;-4.78;61.93;98726.81;5050174;28;20051;-80
2022/01/17 11:42:50;;;;;;;8.18;4.50;;;;;;;-4.99;62.32;98722.22;5077286;28;20052;-82
2022/01/17 11:45:23;;;;;;;6.10;4.10;;;;;;;-5.07;62.64;98726.78;5093473;28;20036;-82
2022/01/17 11:47:56;;;;;;;6.57;3.95;;;;;;;-5.19;62.82;98746.16;5093237;28;20039;-81
2022/01/17 11:50:29;;;;;;;8.52;3.60;;;;;;;-5.31;63.08;98747.34;5043152;28;20039;-80
2022/01/17 11:53:00;;;;;;;6.00;4.15;;;;;;;-5.37;63.11;98755.34;5099275;28;20185;-83
2022/01/17 11:55:42;;;;;;;5.85;4.18;;;;;;;-5.53;63.27;98748.78;5058175;28;20419;-84
2022/01/17 11:58:37;;;;;;;5.82;4.07;;;;;;;-5.48;62.88;98773.84;5075146;28;20048;-83
2022/01/17 12:01:03;;;;;;;7.25;4.18;;;;;;;-5.55;62.99;98769.66;5091089;28;20067;-84
2022/01/17 12:03:43;;;;;;;3.03;2.28;;;;;;;-5.66;62.79;98754.28;5073558;28;20044;-84
2022/01/17 12:06:28;;;;;;;6.47;3.88;;;;;;;-5.63;62.79;98782.88;5041697;28;20051;-84
2022/01/17 12:09:31;;;;;;;6.13;3.85;;;;;;;-5.88;63.54;98786.94;5043785;28;20075;-82
2022/01/17 12:12:14;;;;;;;7.55;3.72;;;;;;;-5.95;63.78;98793.19;5043706;28;20138;-82